الصفحة الرئيسية
METAR-TAF:

METAR-TAF

مطار :

Weno, مايكرونيزيا

دائرة عرض: 07-28N, خط طول: 151-51E, ارتفاع: 3 متر

مراقبة الطقس الحالي

تاريخ ووقت الإصدار 19 دقيقة قبل الساعة 20:53UTC
ريح 3 عقدةمن اتجاهات متغيرة
درجة الحرارة 27°درجة مئوية
الرطوبة 100%
ضغط 1013 hPa
الرؤية: 24.1 كم
غيوم قليلة على ارتفاع 1200 قدم, مزنة ركامية.
غيوم مفككة على ارتفاع 12000 قدم
ملبد بالغيوم على ارتفاع 28000 قدم

METAR: PTKK 252053Z VRB03KT 15SM FEW012CB BKN120 OVC280 27/27 A2990 RMK RAE20 CB SW-NW SLP128 60013 8/328 T02680265 52017

زمن: 07:12 (21:12 UTC)

توقعات

تاريخ ووقت الإصدار 3ساعات و 47 دقيقة قبل الساعة 17:25UTC
التوقعات صالحة من25 الساعة 18 UTC إلى 26 الساعة 18 UTC
ريح 10 عقدة من الشرق
الرؤية: 10 كم
غيوم متفرقة على ارتفاع 1600 قدم
غيوم متفرقة على ارتفاع 5000 قدم
غيوم مفككة على ارتفاع 11000 قدم
زخات في الجوار
من 26 الساعة 0300 UTC
ريح 9 عقدة من الشرق/الجنوب الشرقي
الرؤية: 10 كم
غيوم متفرقة على ارتفاع 1500 قدم
غيوم مفككة على ارتفاع 5000 قدم
ملبد بالغيوم على ارتفاع 12000 قدم
زخات في الجوار

TAF: PTKK 251725Z 2518/2618 08010KT P6SM VCSH SCT016 SCT050 BKN110 FM260300 11009KT P6SM VCSH SCT015 BKN050 OVC120

أرصاد الطقس والتوقعات من أكثر من 4000 مطار (تقارير الطقس للمطار METAR والتنبؤ بالطقس بالمطارTAF).

المحطات المتاحة هي النقط الصفراء والحمراء على الخريطة.

حرك المؤشر فوق النقطة لمعرفة اسم المحطة.

ثم انقر لمعرفة أرصاد وتوقعات الطقس.

لتغيير الخارطة: اضغط على الأزرار الخضراء مع رمز الصليب الأسود للتكبير. على الزر الأخضر مع شرطة للتصغير، أو على الأسهم الخضراء للخرائط المجاورة.


METAR-TAF: